Time;durP1;ratioP1;P1;durP2;ratioP2;P2;SDS_P1;SDS_P2;PMS_P1;PMS_P2;Temp;Humidity;BMP_temperature;BMP_pressure;BME280_temperature;BME280_humidity;BME280_pressure;Samples;Min_cycle;Max_cycle;Signal;HPM_P1;HPM_P2
2022/09/07 00:00:52;;;;;;;3.30;2.27;;;;;;;17.58;60.33;97615.72;4911070;29;20218;-71
2022/09/07 00:03:20;;;;;;;3.77;2.40;;;;;;;17.49;60.04;97611.94;4911916;29;20213;-73
2022/09/07 00:05:49;;;;;;;2.60;2.30;;;;;;;17.31;60.45;97614.84;4911321;29;20191;-71
2022/09/07 00:08:20;;;;;;;3.53;2.37;;;;;;;17.12;60.73;97620.41;4911463;29;20584;-70
2022/09/07 00:10:55;;;;;;;3.40;2.10;;;;;;;16.83;61.73;97622.22;4911291;29;20250;-72
2022/09/07 00:13:24;;;;;;;4.03;2.50;;;;;;;16.90;62.21;97620.03;4911191;29;20192;-72
2022/09/07 00:15:51;;;;;;;4.13;2.27;;;;;;;16.99;61.81;97622.09;4911683;29;20196;-72
2022/09/07 00:18:18;;;;;;;2.93;2.03;;;;;;;16.90;61.88;97618.28;4909648;29;20207;-71
2022/09/07 00:20:46;;;;;;;3.40;2.30;;;;;;;16.94;62.23;97626.75;4910058;29;20502;-71
2022/09/07 00:23:13;;;;;;;3.30;2.40;;;;;;;16.77;62.28;97616.50;4911097;29;20207;-71
2022/09/07 00:25:40;;;;;;;3.87;2.47;;;;;;;16.77;62.54;97611.28;4909717;29;20207;-74
2022/09/07 00:28:07;;;;;;;3.13;2.37;;;;;;;16.49;63.12;97619.94;4911120;29;20195;-73
2022/09/07 00:30:40;;;;;;;2.97;2.67;;;;;;;16.07;64.72;97620.66;4910654;29;20291;-74
2022/09/07 00:33:08;;;;;;;4.33;2.40;;;;;;;15.98;64.97;97617.75;4910216;29;20194;-71
2022/09/07 00:35:40;;;;;;;2.83;2.50;;;;;;;15.82;65.41;97619.56;4910711;29;20199;-71
2022/09/07 00:38:08;;;;;;;3.37;2.03;;;;;;;15.82;65.83;97628.25;4911165;29;20691;-70
2022/09/07 00:40:35;;;;;;;3.17;2.30;;;;;;;15.77;65.84;97635.50;4910703;29;20292;-71
2022/09/07 00:43:03;;;;;;;4.43;2.30;;;;;;;15.72;65.96;97629.72;4909612;29;20572;-74
2022/09/07 00:45:31;;;;;;;4.80;2.30;;;;;;;15.66;65.78;97622.19;4911487;29;20214;-75
2022/09/07 00:48:08;;;;;;;3.60;2.87;;;;;;;15.51;66.43;97625.69;4911000;29;20701;-74
2022/09/07 00:50:45;;;;;;;4.23;2.67;;;;;;;15.48;67.01;97630.25;4909888;29;20695;-73
2022/09/07 00:53:18;;;;;;;4.20;2.40;;;;;;;15.38;66.97;97620.28;4911187;29;20193;-75
2022/09/07 00:55:48;;;;;;;4.37;2.63;;;;;;;15.31;67.50;97612.88;4911478;29;20640;-74
2022/09/07 00:58:16;;;;;;;3.33;2.50;;;;;;;15.07;67.97;97609.00;4911393;29;20359;-71
2022/09/07 01:00:45;;;;;;;3.37;2.83;;;;;;;15.14;68.20;97615.56;4910909;29;20261;-71
2022/09/07 01:03:17;;;;;;;4.47;3.40;;;;;;;15.02;68.21;97617.06;4910884;29;20226;-71
2022/09/07 01:05:58;;;;;;;2.90;2.60;;;;;;;14.98;68.77;97610.34;4910220;29;20705;-71
2022/09/07 01:08:25;;;;;;;3.37;3.07;;;;;;;15.06;68.64;97602.09;4910579;29;20199;-72
2022/09/07 01:10:53;;;;;;;3.13;2.83;;;;;;;15.00;68.77;97603.25;4910478;29;20194;-71
2022/09/07 01:13:21;;;;;;;3.63;2.60;;;;;;;14.88;69.37;97616.16;4910477;29;20241;-71
2022/09/07 01:16:01;;;;;;;3.90;3.50;;;;;;;15.04;69.59;97619.63;4910661;29;20662;-71
2022/09/07 01:19:13;;;;;;;3.90;2.60;;;;;;;15.35;68.33;97596.13;4910121;29;20204;-71
2022/09/07 01:21:54;;;;;;;2.60;2.40;;;;;;;15.60;66.61;97603.47;4892100;29;20743;-72
2022/09/07 01:24:23;;;;;;;4.50;2.77;;;;;;;15.46;66.84;97593.78;4910683;29;20190;-72
2022/09/07 01:27:10;;;;;;;3.77;2.70;;;;;;;15.29;67.30;97593.88;4910136;29;20202;-72
2022/09/07 01:29:42;;;;;;;2.93;2.53;;;;;;;15.11;67.82;97590.50;4910295;29;20233;-72
2022/09/07 01:32:44;;;;;;;4.80;2.67;;;;;;;14.99;68.14;97595.53;4910078;29;20635;-72
2022/09/07 01:35:21;;;;;;;3.30;2.73;;;;;;;14.87;68.98;97596.19;4876488;29;20589;-73
2022/09/07 01:38:26;;;;;;;4.50;2.67;;;;;;;14.75;69.15;97599.47;4910819;29;20261;-72
2022/09/07 01:41:17;;;;;;;3.80;3.20;;;;;;;14.77;69.15;97598.47;4888245;29;20241;-72
2022/09/07 01:44:14;;;;;;;3.87;3.00;;;;;;;14.57;70.08;97590.84;4910043;29;20210;-71
2022/09/07 01:46:58;;;;;;;3.23;2.90;;;;;;;14.55;69.90;97588.31;4910553;29;20671;-75
2022/09/07 01:49:25;;;;;;;7.03;3.00;;;;;;;14.80;69.64;97584.41;4910037;29;20190;-74
2022/09/07 01:51:59;;;;;;;3.97;2.77;;;;;;;14.79;68.58;97585.34;4910044;29;20193;-71
2022/09/07 01:54:39;;;;;;;4.57;3.70;;;;;;;14.86;68.92;97589.31;4908967;29;20576;-75
2022/09/07 01:57:19;;;;;;;3.97;3.23;;;;;;;14.66;69.39;97587.75;4909710;29;20248;-72
2022/09/07 01:59:57;;;;;;;4.23;3.40;;;;;;;14.58;70.00;97588.19;4908998;29;20198;-71
2022/09/07 02:02:29;;;;;;;3.97;3.30;;;;;;;14.52;70.14;97585.03;4911351;29;20222;-71
2022/09/07 02:05:06;;;;;;;3.80;3.50;;;;;;;14.45;70.34;97581.91;4913624;29;20205;-71
2022/09/07 02:08:05;;;;;;;4.60;3.67;;;;;;;14.23;71.25;97589.13;4913975;29;20249;-74
2022/09/07 02:10:39;;;;;;;5.97;4.33;;;;;;;14.10;71.00;97569.84;4888479;29;20210;-72
2022/09/07 02:13:15;;;;;;;6.77;3.90;;;;;;;14.24;71.08;97585.59;4913772;29;20636;-71
2022/09/07 02:15:49;;;;;;;5.33;3.70;;;;;;;14.28;71.05;97568.91;4912259;29;20567;-70
2022/09/07 02:18:21;;;;;;;4.67;3.70;;;;;;;14.29;70.89;97562.78;4913241;29;20430;-71
2022/09/07 02:20:53;;;;;;;3.90;3.60;;;;;;;14.55;70.19;97570.06;4913816;29;20222;-70
2022/09/07 02:23:47;;;;;;;6.23;4.10;;;;;;;14.54;70.21;97573.63;4913178;29;20195;-74
2022/09/07 02:26:20;;;;;;;6.33;5.10;;;;;;;14.37;70.81;97572.81;4913829;29;20278;-71
2022/09/07 02:28:47;;;;;;;5.97;4.37;;;;;;;14.28;71.53;97571.53;4913318;29;20226;-72
2022/09/07 02:31:15;;;;;;;5.17;4.67;;;;;;;14.16;71.77;97569.53;4912358;29;20198;-72
2022/09/07 02:33:42;;;;;;;5.37;4.87;;;;;;;14.06;72.65;97575.28;4913658;29;20305;-70
2022/09/07 02:36:12;;;;;;;5.63;5.07;;;;;;;14.01;72.98;97570.31;4912811;29;20198;-70
2022/09/07 02:38:39;;;;;;;6.20;5.07;;;;;;;14.08;72.92;97571.69;4913159;29;20192;-70
2022/09/07 02:41:30;;;;;;;5.93;5.33;;;;;;;14.04;72.81;97571.91;4913285;29;20599;-71
2022/09/07 02:43:59;;;;;;;6.40;5.03;;;;;;;13.98;73.44;97567.84;4912746;29;20288;-70
2022/09/07 02:46:45;;;;;;;6.00;5.40;;;;;;;14.07;72.61;97567.41;4913422;29;20259;-70
2022/09/07 02:49:48;;;;;;;5.90;5.30;;;;;;;13.93;73.26;97567.25;4912789;29;20188;-71
2022/09/07 02:52:30;;;;;;;6.70;4.43;;;;;;;13.82;73.77;97577.38;4912777;29;20245;-71
2022/09/07 02:55:06;;;;;;;6.63;4.80;;;;;;;13.91;73.46;97568.25;4895969;29;20569;-71
2022/09/07 02:58:02;;;;;;;6.47;5.00;;;;;;;13.98;73.51;97572.22;4910987;29;20202;-71
2022/09/07 03:00:39;;;;;;;5.40;4.50;;;;;;;14.06;72.52;97564.84;4912490;29;20716;-72
2022/09/07 03:03:24;;;;;;;6.87;4.90;;;;;;;14.02;72.56;97569.38;4912768;29;20268;-70
2022/09/07 03:05:59;;;;;;;6.17;4.73;;;;;;;13.96;72.57;97568.84;4912385;29;20682;-71
2022/09/07 03:08:38;;;;;;;5.67;3.97;;;;;;;13.94;72.70;97586.31;4912823;29;20705;-71
2022/09/07 03:11:06;;;;;;;5.03;4.53;;;;;;;13.73;73.61;97570.84;4911074;29;20244;-70
2022/09/07 03:13:33;;;;;;;5.43;4.20;;;;;;;13.69;74.26;97571.06;4912126;29;20206;-71
2022/09/07 03:16:00;;;;;;;4.53;4.13;;;;;;;13.61;74.83;97576.69;4912658;29;20197;-71
2022/09/07 03:18:27;;;;;;;4.33;3.93;;;;;;;13.53;74.57;97567.56;4912255;29;20210;-71
2022/09/07 03:20:55;;;;;;;4.13;3.50;;;;;;;13.73;74.57;97568.25;4912599;29;20260;-71
2022/09/07 03:23:22;;;;;;;5.73;3.70;;;;;;;13.85;73.58;97572.00;4912049;29;20244;-75
2022/09/07 03:25:49;;;;;;;4.73;3.77;;;;;;;13.65;74.05;97556.53;4912457;29;20186;-71
2022/09/07 03:28:17;;;;;;;4.27;3.80;;;;;;;13.68;73.85;97569.41;4912100;29;20568;-72
2022/09/07 03:30:46;;;;;;;4.53;4.07;;;;;;;13.57;74.32;97572.53;4910891;29;20265;-72
2022/09/07 03:33:16;;;;;;;4.83;3.57;;;;;;;13.60;74.78;97572.38;4912161;29;20195;-74
2022/09/07 03:35:45;;;;;;;5.90;3.60;;;;;;;13.77;73.20;97561.97;4911787;29;20213;-71
2022/09/07 03:38:12;;;;;;;6.67;4.00;;;;;;;13.81;72.80;97579.13;4912568;29;20903;-74
2022/09/07 03:40:39;;;;;;;5.13;4.00;;;;;;;13.56;73.82;97593.44;4911664;29;20632;-74
2022/09/07 03:43:06;;;;;;;5.90;3.70;;;;;;;13.35;75.12;97581.47;4912041;29;20206;-74
2022/09/07 03:45:33;;;;;;;5.43;4.30;;;;;;;13.39;75.25;97588.19;4912230;29;20674;-73
2022/09/07 03:48:00;;;;;;;4.37;3.97;;;;;;;13.21;75.06;97579.50;4911676;29;20661;-71
2022/09/07 03:50:28;;;;;;;8.20;5.47;;;;;;;13.16;75.55;97591.03;4911853;29;20640;-71
2022/09/07 03:52:55;;;;;;;7.87;6.43;;;;;;;13.08;76.17;97594.00;4911732;29;20194;-71
2022/09/07 03:55:21;;;;;;;8.80;5.70;;;;;;;13.03;76.35;97581.19;4912019;29;20266;-73
2022/09/07 03:57:48;;;;;;;10.03;6.63;;;;;;;13.01;76.75;97587.38;4911259;29;20197;-71
2022/09/07 04:00:16;;;;;;;8.00;6.57;;;;;;;13.04;76.74;97595.06;4911748;29;20239;-72
2022/09/07 04:02:43;;;;;;;7.57;6.70;;;;;;;13.00;77.41;97581.31;4911300;29;20224;-72
2022/09/07 04:05:10;;;;;;;9.13;6.50;;;;;;;13.01;76.77;97590.81;4911473;29;20296;-72
2022/09/07 04:07:37;;;;;;;6.77;6.10;;;;;;;13.20;76.68;97592.59;4910227;29;20210;-73
2022/09/07 04:10:05;;;;;;;8.90;6.63;;;;;;;13.25;75.73;97569.81;4906109;29;20199;-75
2022/09/07 04:12:32;;;;;;;6.67;5.73;;;;;;;13.58;75.39;97594.22;4910520;29;20201;-72
2022/09/07 04:15:02;;;;;;;6.40;5.30;;;;;;;13.82;73.14;97579.97;4907896;29;20198;-74
2022/09/07 04:17:29;;;;;;;6.90;5.30;;;;;;;14.03;72.69;97597.13;4910115;29;20817;-71
2022/09/07 04:19:56;;;;;;;7.73;5.77;;;;;;;14.15;72.31;97600.88;4911472;29;20548;-74
2022/09/07 04:22:23;;;;;;;6.33;5.17;;;;;;;14.22;71.71;97599.63;4910964;29;20226;-79
2022/09/07 04:24:50;;;;;;;6.17;4.77;;;;;;;14.19;71.80;97599.78;4910568;29;20201;-77
2022/09/07 04:27:17;;;;;;;5.83;4.33;;;;;;;13.88;72.29;97603.09;4910940;29;20755;-75
2022/09/07 04:29:46;;;;;;;5.40;4.30;;;;;;;14.07;71.96;97614.28;4922983;29;20288;-75
2022/09/07 04:32:13;;;;;;;4.87;4.37;;;;;;;14.31;71.26;97610.47;4912325;29;20197;-75
2022/09/07 04:34:42;;;;;;;6.30;4.30;;;;;;;14.63;70.45;97620.03;4929639;29;21471;-76
2022/09/07 04:37:11;;;;;;;4.87;4.07;;;;;;;14.83;68.97;97607.72;4930123;29;20254;-79
2022/09/07 04:39:38;;;;;;;8.40;4.23;;;;;;;14.78;69.17;97617.53;4929890;29;20241;-76
2022/09/07 04:42:05;;;;;;;5.37;4.00;;;;;;;14.72;69.72;97617.88;4929594;29;20229;-76
2022/09/07 04:44:32;;;;;;;4.80;3.97;;;;;;;14.50;70.10;97624.22;4929582;29;20190;-75
2022/09/07 04:46:59;;;;;;;6.43;4.07;;;;;;;14.84;69.16;97625.06;4912859;29;20217;-80
2022/09/07 04:49:26;;;;;;;4.90;3.70;;;;;;;14.85;69.36;97627.59;4929263;29;20194;-76
2022/09/07 04:51:53;;;;;;;5.93;4.00;;;;;;;15.01;68.65;97625.84;4912390;29;20539;-77
2022/09/07 04:54:20;;;;;;;5.30;3.80;;;;;;;15.01;68.65;97625.84;4912112;29;20200;-77
2022/09/07 04:56:47;;;;;;;10.00;3.57;;;;;;;15.04;68.57;97620.47;4929157;29;20217;-76
2022/09/07 04:59:14;;;;;;;3.87;3.50;;;;;;;14.97;68.83;97628.69;4929726;29;20203;-76
2022/09/07 05:01:41;;;;;;;4.00;3.40;;;;;;;14.95;68.96;97633.13;4912176;29;20780;-75
2022/09/07 05:04:08;;;;;;;4.93;3.80;;;;;;;15.07;68.97;97629.88;4929695;29;20205;-75
2022/09/07 05:06:35;;;;;;;4.87;3.50;;;;;;;15.36;68.31;97631.72;4928583;29;20213;-77
2022/09/07 05:09:02;;;;;;;4.07;3.10;;;;;;;15.38;68.23;97625.50;4929384;29;20195;-76
2022/09/07 05:11:29;;;;;;;5.27;3.50;;;;;;;15.60;67.90;97630.38;4929143;29;20204;-76
2022/09/07 05:13:58;;;;;;;5.37;3.50;;;;;;;15.83;67.08;97634.31;4929609;29;20201;-77
2022/09/07 05:16:26;;;;;;;4.30;3.27;;;;;;;16.32;65.76;97627.09;4911826;29;20212;-77
2022/09/07 05:19:01;;;;;;;6.60;3.37;;;;;;;16.58;64.42;97642.09;4928906;29;20197;-78
2022/09/07 05:21:31;;;;;;;4.33;3.10;;;;;;;16.50;64.38;97633.88;4929574;29;20222;-77
2022/09/07 05:23:59;;;;;;;3.43;2.40;;;;;;;16.82;64.00;97630.13;4928739;29;20216;-79
2022/09/07 05:26:29;;;;;;;3.67;3.13;;;;;;;16.87;63.67;97639.41;4929233;29;20242;-78
2022/09/07 05:29:01;;;;;;;4.50;2.90;;;;;;;16.70;64.21;97630.88;4908685;29;20229;-80
2022/09/07 05:31:48;;;;;;;3.63;2.87;;;;;;;16.70;64.78;97630.88;4908319;29;20240;-80
2022/09/07 05:34:16;;;;;;;6.50;3.30;;;;;;;16.71;64.51;97632.59;4908749;29;20210;-80
2022/09/07 05:37:00;;;;;;;7.10;3.33;;;;;;;16.99;63.70;97629.94;4912382;29;20280;-79
2022/09/07 05:39:27;;;;;;;2.60;2.40;;;;;;;17.29;63.30;97632.44;4914467;29;20188;-80
2022/09/07 05:41:55;;;;;;;4.00;2.80;;;;;;;17.52;62.21;97629.22;4913946;29;20219;-79
2022/09/07 05:44:22;;;;;;;2.97;2.67;;;;;;;17.55;62.05;97626.41;4912496;29;20205;-80
2022/09/07 05:47:09;;;;;;;4.67;2.80;;;;;;;17.76;61.89;97631.09;4914331;29;20286;-79
2022/09/07 05:50:00;;;;;;;6.10;2.77;;;;;;;17.94;61.24;97636.09;4916306;29;20200;-77
2022/09/07 05:52:30;;;;;;;3.50;2.80;;;;;;;18.15;60.62;97634.66;4917518;29;20204;-79
2022/09/07 05:55:03;;;;;;;4.83;2.67;;;;;;;18.29;60.47;97631.97;4917744;29;20189;-79
2022/09/07 05:57:56;;;;;;;3.07;2.67;;;;;;;18.35;60.37;97624.53;4916568;29;20646;-79
2022/09/07 06:00:23;;;;;;;6.80;2.47;;;;;;;18.43;60.00;97626.63;4913991;29;20302;-77
2022/09/07 06:02:50;;;;;;;5.07;3.43;;;;;;;18.73;59.35;97619.34;4911807;29;20236;-78
2022/09/07 06:05:17;;;;;;;3.60;2.47;;;;;;;18.95;58.49;97622.16;4897134;29;20204;-78
2022/09/07 06:07:47;;;;;;;3.30;2.40;;;;;;;19.11;57.80;97628.00;4913249;29;20204;-76
2022/09/07 06:10:14;;;;;;;4.77;2.97;;;;;;;19.20;57.56;97616.84;4913328;29;20264;-78
2022/09/07 06:13:03;;;;;;;3.40;2.97;;;;;;;19.33;57.30;97630.78;4912366;29;20190;-79
2022/09/07 06:15:33;;;;;;;7.13;3.23;;;;;;;19.61;57.30;97623.56;4913319;29;20246;-76
2022/09/07 06:18:02;;;;;;;8.90;4.10;;;;;;;19.71;57.00;97624.56;4913646;29;20286;-78
2022/09/07 06:20:30;;;;;;;8.17;3.43;;;;;;;19.82;56.51;97622.84;4912960;29;20218;-76
2022/09/07 06:22:58;;;;;;;5.30;3.47;;;;;;;20.01;55.70;97611.81;4911819;29;20285;-79
2022/09/07 06:25:25;;;;;;;8.97;3.40;;;;;;;20.19;55.42;97623.59;4895910;29;20217;-77
2022/09/07 06:27:52;;;;;;;5.73;3.57;;;;;;;20.35;55.28;97626.78;4911463;29;20202;-78
2022/09/07 06:30:20;;;;;;;4.10;2.50;;;;;;;20.27;55.40;97618.63;4914553;29;20242;-76
2022/09/07 06:32:47;;;;;;;4.47;2.63;;;;;;;20.12;55.75;97623.19;4931751;29;20204;-76
2022/09/07 06:35:14;;;;;;;6.77;3.80;;;;;;;20.32;55.84;97623.53;4932065;29;20212;-76
2022/09/07 06:37:42;;;;;;;4.40;2.80;;;;;;;20.45;55.12;97611.13;4914265;29;20701;-77
2022/09/07 06:40:10;;;;;;;3.57;2.60;;;;;;;20.33;55.50;97622.56;4931581;29;20663;-78
2022/09/07 06:42:38;;;;;;;5.37;3.57;;;;;;;20.45;55.14;97617.22;4931576;29;20725;-79
2022/09/07 06:45:09;;;;;;;7.17;3.00;;;;;;;20.69;54.40;97612.69;4914096;29;20775;-77
2022/09/07 06:47:37;;;;;;;2.90;1.97;;;;;;;20.83;53.99;97620.41;4898371;29;20260;-77
2022/09/07 06:50:04;;;;;;;5.10;2.60;;;;;;;20.82;53.96;97626.59;4931242;29;20198;-78
2022/09/07 06:52:34;;;;;;;9.00;4.10;;;;;;;20.91;53.79;97623.28;4931616;29;20210;-77
2022/09/07 06:55:21;;;;;;;6.97;3.47;;;;;;;21.11;53.16;97628.78;4931148;29;20237;-78
2022/09/07 06:57:51;;;;;;;5.93;3.10;;;;;;;21.32;53.08;97627.94;4931140;29;20272;-78
2022/09/07 07:00:19;;;;;;;5.13;2.57;;;;;;;21.42;52.29;97626.25;4914520;29;20191;-77
2022/09/07 07:02:47;;;;;;;3.83;3.43;;;;;;;21.35;52.48;97624.25;4913870;29;20661;-77
2022/09/07 07:05:14;;;;;;;7.27;2.40;;;;;;;21.47;52.19;97623.25;4931726;29;20201;-76
2022/09/07 07:07:41;;;;;;;5.67;3.77;;;;;;;21.63;51.76;97621.06;4930984;29;20269;-76
2022/09/07 07:10:08;;;;;;;4.00;2.30;;;;;;;21.75;50.61;97617.41;4930894;29;20278;-77
2022/09/07 07:12:35;;;;;;;4.60;2.60;;;;;;;21.96;49.82;97625.41;4930879;29;20253;-78
2022/09/07 07:15:01;;;;;;;7.77;3.83;;;;;;;21.95;49.31;97624.56;4930986;29;20192;-76
2022/09/07 07:17:29;;;;;;;8.17;3.23;;;;;;;22.11;49.05;97624.16;4930980;29;20750;-76
2022/09/07 07:19:56;;;;;;;5.07;2.33;;;;;;;21.95;49.10;97629.03;4930251;29;20242;-77
2022/09/07 07:22:24;;;;;;;2.83;2.23;;;;;;;21.91;48.50;97627.59;4931249;29;20224;-76
2022/09/07 07:25:11;;;;;;;5.67;3.47;;;;;;;21.95;47.75;97629.84;4930562;29;20203;-77
2022/09/07 07:27:41;;;;;;;3.27;1.93;;;;;;;21.99;45.60;97631.25;4913555;29;20199;-77
2022/09/07 07:30:09;;;;;;;3.00;1.90;;;;;;;22.06;46.07;97621.06;4910148;29;20719;-77
2022/09/07 07:32:37;;;;;;;6.60;3.10;;;;;;;22.37;44.95;97636.00;4911156;29;20222;-76
2022/09/07 07:35:06;;;;;;;3.57;2.40;;;;;;;22.47;44.76;97632.47;4911599;29;20259;-75
2022/09/07 07:37:35;;;;;;;4.53;2.10;;;;;;;22.39;44.46;97628.81;4911054;29;20666;-76
2022/09/07 07:40:06;;;;;;;3.17;1.83;;;;;;;22.27;44.73;97641.25;4910242;29;20298;-77
2022/09/07 07:42:44;;;;;;;4.60;2.20;;;;;;;22.32;45.12;97630.28;4909959;29;20313;-76
2022/09/07 07:45:12;;;;;;;4.30;3.30;;;;;;;22.43;45.41;97639.00;4911197;29;20272;-76
2022/09/07 07:47:59;;;;;;;4.57;2.60;;;;;;;22.75;44.13;97635.47;4911603;29;20293;-78
2022/09/07 07:50:26;;;;;;;3.30;2.13;;;;;;;22.90;43.07;97634.97;4893592;29;20684;-81
2022/09/07 07:52:58;;;;;;;3.10;2.20;;;;;;;22.77;43.47;97633.53;4911341;29;20204;-78
2022/09/07 07:55:45;;;;;;;5.40;2.23;;;;;;;22.83;43.16;97641.78;4909578;29;20188;-76
2022/09/07 07:58:12;;;;;;;4.00;2.27;;;;;;;23.07;41.65;97636.16;4912146;29;20194;-76
2022/09/07 08:00:39;;;;;;;3.50;2.33;;;;;;;23.11;40.78;97641.06;4912793;29;20284;-76
2022/09/07 08:03:23;;;;;;;5.70;2.60;;;;;;;22.97;40.98;97640.59;4912752;29;20224;-79
2022/09/07 08:05:51;;;;;;;2.33;2.13;;;;;;;22.88;41.06;97636.91;4911470;29;20654;-76
2022/09/07 08:08:18;;;;;;;3.73;2.20;;;;;;;23.03;41.31;97634.75;4911116;29;20611;-76
2022/09/07 08:10:46;;;;;;;4.03;2.53;;;;;;;23.05;38.94;97628.38;4910785;29;20221;-75
2022/09/07 08:13:15;;;;;;;3.73;2.40;;;;;;;22.91;38.42;97631.38;4911029;29;20198;-76
2022/09/07 08:15:45;;;;;;;5.03;3.03;;;;;;;22.72;40.40;97633.91;4911098;29;20216;-76
2022/09/07 08:18:16;;;;;;;6.13;3.10;;;;;;;22.81;39.71;97622.59;4911409;29;20713;-76
2022/09/07 08:20:43;;;;;;;2.43;2.00;;;;;;;23.00;39.64;97624.47;4910806;29;20209;-77
2022/09/07 08:23:13;;;;;;;5.57;2.23;;;;;;;23.06;40.84;97618.66;4911027;29;20294;-76
2022/09/07 08:25:50;;;;;;;3.63;2.30;;;;;;;23.26;41.31;97621.25;4909412;29;20678;-76
2022/09/07 08:28:21;;;;;;;4.47;2.90;;;;;;;23.36;41.23;97616.00;4909990;29;20198;-76
2022/09/07 08:30:48;;;;;;;2.50;2.20;;;;;;;23.37;40.16;97617.66;4929701;29;20210;-76
2022/09/07 08:33:15;;;;;;;4.00;2.20;;;;;;;23.51;39.97;97614.66;4912079;29;20201;-76
2022/09/07 08:35:54;;;;;;;7.27;3.23;;;;;;;23.58;39.46;97610.50;4929689;29;20256;-76
2022/09/07 08:38:21;;;;;;;4.53;2.60;;;;;;;23.72;39.36;97615.38;4911926;29;20533;-77
2022/09/07 08:40:48;;;;;;;5.10;3.17;;;;;;;23.86;39.10;97606.22;4928883;29;20243;-76
2022/09/07 08:43:34;;;;;;;5.33;2.70;;;;;;;23.73;39.20;97609.13;4928964;29;20231;-77
2022/09/07 08:46:11;;;;;;;4.83;2.73;;;;;;;23.38;40.30;97620.19;4929207;29;20195;-76
2022/09/07 08:48:39;;;;;;;3.47;1.90;;;;;;;22.84;40.97;97613.53;4912163;29;20262;-76
2022/09/07 08:51:17;;;;;;;5.17;3.03;;;;;;;22.71;41.44;97610.28;4911647;29;20204;-76
2022/09/07 08:53:50;;;;;;;4.30;2.87;;;;;;;22.74;40.98;97602.09;4928627;29;20203;-76
2022/09/07 08:56:41;;;;;;;3.07;2.20;;;;;;;22.93;41.60;97605.66;4928564;29;20210;-75
2022/09/07 08:59:40;;;;;;;6.77;3.93;;;;;;;22.98;42.94;97602.63;4911010;29;20300;-76
2022/09/07 09:02:14;;;;;;;4.57;2.77;;;;;;;23.02;42.13;97596.13;4928530;29;20284;-76
2022/09/07 09:05:03;;;;;;;31.03;14.90;;;;;;;23.43;41.53;97601.28;4928580;29;20189;-75
2022/09/07 09:08:15;;;;;;;5.37;3.10;;;;;;;23.17;42.06;97590.31;4928444;29;20765;-76
2022/09/07 09:10:55;;;;;;;3.73;2.20;;;;;;;23.36;42.26;97585.13;4895499;29;20275;-76
2022/09/07 09:14:12;;;;;;;2.90;2.00;;;;;;;23.40;41.88;97585.69;4911233;29;20200;-77
2022/09/07 09:16:39;;;;;;;2.13;1.90;;;;;;;23.33;41.81;97582.75;4926445;29;20298;-76
2022/09/07 09:19:39;;;;;;;4.90;2.63;;;;;;;23.64;41.31;97582.69;4928640;29;20265;-77
2022/09/07 09:22:12;;;;;;;2.97;2.13;;;;;;;23.27;41.53;97572.69;4928388;29;20290;-77
2022/09/07 09:24:46;;;;;;;4.00;2.30;;;;;;;22.99;42.05;97570.78;4911427;29;20748;-77
2022/09/07 09:27:14;;;;;;;3.33;2.40;;;;;;;23.09;42.08;97533.81;4928529;29;20248;-76
2022/09/07 09:29:42;;;;;;;5.50;2.60;;;;;;;23.29;42.21;97578.66;4927800;29;20261;-79
2022/09/07 09:32:28;;;;;;;5.07;2.07;;;;;;;22.83;41.66;97575.75;4928844;29;20748;-77
2022/09/07 09:35:04;;;;;;;6.10;2.50;;;;;;;22.98;41.91;97566.47;4928770;29;20196;-76
2022/09/07 09:37:36;;;;;;;4.67;2.33;;;;;;;22.96;41.57;97557.84;4928626;29;20195;-76
2022/09/07 09:40:08;;;;;;;3.30;2.00;;;;;;;22.92;41.25;97564.34;4928853;29;20190;-79
2022/09/07 09:42:37;;;;;;;3.77;2.20;;;;;;;22.76;41.80;97552.63;4911284;29;20252;-77
2022/09/07 09:45:26;;;;;;;2.87;1.97;;;;;;;23.12;40.94;97523.00;4911314;29;20295;-78
2022/09/07 09:47:53;;;;;;;2.67;2.20;;;;;;;23.63;40.25;97557.19;4911693;29;20744;-80
2022/09/07 09:50:24;;;;;;;2.57;2.27;;;;;;;23.67;38.78;97540.91;4911265;29;20193;-76
2022/09/07 09:53:32;;;;;;;2.97;2.53;;;;;;;24.14;38.58;97537.44;4928451;29;20184;-78
2022/09/07 09:56:06;;;;;;;4.33;2.70;;;;;;;24.29;38.64;97547.56;4928326;29;20221;-78
2022/09/07 09:58:37;;;;;;;2.63;2.07;;;;;;;24.45;38.63;97535.41;4928617;29;20659;-80
2022/09/07 10:01:36;;;;;;;2.87;2.40;;;;;;;23.64;38.88;97540.38;4898446;29;20191;-76
2022/09/07 10:04:24;;;;;;;6.73;4.90;;;;;;;23.53;39.27;97533.38;4910873;29;20741;-76
2022/09/07 10:06:56;;;;;;;4.43;2.43;;;;;;;23.48;39.40;97530.31;4929040;29;20277;-77
2022/09/07 10:09:28;;;;;;;4.83;2.80;;;;;;;23.93;38.56;97523.50;4928129;29;20254;-80
2022/09/07 10:12:01;;;;;;;4.20;3.50;;;;;;;24.40;37.95;97528.88;4930532;29;20583;-76
2022/09/07 10:14:42;;;;;;;6.23;2.90;;;;;;;24.55;37.94;97522.13;4913068;29;20585;-76
2022/09/07 10:17:29;;;;;;;5.30;2.43;;;;;;;24.64;36.94;97522.13;4928987;29;20195;-79
2022/09/07 10:20:00;;;;;;;2.57;2.37;;;;;;;24.22;38.15;97519.03;4928487;29;20200;-75
2022/09/07 10:22:30;;;;;;;4.13;2.47;;;;;;;23.78;38.41;97526.72;4910969;29;20566;-76
2022/09/07 10:24:59;;;;;;;4.30;2.77;;;;;;;23.77;38.73;97515.28;4914091;29;20273;-77
2022/09/07 10:27:32;;;;;;;3.70;2.10;;;;;;;23.63;39.24;97514.88;4932319;29;20306;-76
2022/09/07 10:30:01;;;;;;;4.93;2.50;;;;;;;23.51;39.80;97497.47;4931410;29;20227;-79
2022/09/07 10:32:57;;;;;;;2.83;2.53;;;;;;;23.83;38.67;97508.59;4898818;29;20202;-76
2022/09/07 10:35:29;;;;;;;4.40;2.47;;;;;;;24.13;38.73;97511.13;4914615;29;20650;-77
2022/09/07 10:38:16;;;;;;;3.50;2.50;;;;;;;23.92;38.47;97505.13;4914333;29;20225;-75
2022/09/07 10:40:55;;;;;;;2.90;2.50;;;;;;;24.03;38.25;97504.94;4932136;29;20207;-76
2022/09/07 10:43:37;;;;;;;3.53;2.60;;;;;;;24.13;38.35;97505.81;4931323;29;20335;-76
2022/09/07 10:46:16;;;;;;;3.67;2.40;;;;;;;24.12;38.49;97499.69;4914322;29;20199;-77
2022/09/07 10:49:29;;;;;;;9.27;5.00;;;;;;;24.39;37.70;97508.66;4931863;29;20191;-76
2022/09/07 10:52:11;;;;;;;3.90;2.70;;;;;;;24.44;37.54;97494.00;4914816;29;20603;-79
2022/09/07 10:55:00;;;;;;;3.53;2.30;;;;;;;24.71;37.66;97493.22;4931573;29;20191;-81
2022/09/07 10:57:50;;;;;;;4.33;2.77;;;;;;;24.86;37.09;97486.47;4914662;29;20546;-77
2022/09/07 11:00:33;;;;;;;2.97;2.60;;;;;;;24.76;36.99;97494.47;4931191;29;20296;-78
2022/09/07 11:03:09;;;;;;;4.03;3.17;;;;;;;24.86;37.74;97489.13;4931356;29;20315;-78
2022/09/07 11:06:17;;;;;;;6.97;3.60;;;;;;;25.29;37.15;97483.97;4931451;29;20611;-75
2022/09/07 11:09:04;;;;;;;3.03;2.43;;;;;;;25.32;36.54;97478.38;4914031;29;20268;-78
2022/09/07 11:12:07;;;;;;;6.97;2.33;;;;;;;25.13;36.57;97483.81;4931299;29;20189;-75
2022/09/07 11:15:02;;;;;;;6.20;2.50;;;;;;;25.11;37.00;97477.81;4919869;29;20193;-78
2022/09/07 11:17:37;;;;;;;4.30;3.27;;;;;;;25.37;37.36;97468.16;4930613;29;20212;-76
2022/09/07 11:20:17;;;;;;;3.27;2.40;;;;;;;24.97;37.15;97460.63;4931226;29;20716;-80
2022/09/07 11:22:55;;;;;;;4.50;2.40;;;;;;;24.89;37.58;97468.47;4930821;29;20302;-76
2022/09/07 11:25:30;;;;;;;3.80;2.87;;;;;;;24.60;37.42;97465.13;4913751;29;20279;-77
2022/09/07 11:28:06;;;;;;;3.30;2.40;;;;;;;24.78;37.38;97455.44;4914475;29;20624;-75
2022/09/07 11:30:39;;;;;;;3.47;2.77;;;;;;;24.42;37.62;97458.09;4930655;29;20230;-76
2022/09/07 11:33:18;;;;;;;2.77;2.30;;;;;;;24.31;38.40;97437.06;4913937;29;20207;-76
2022/09/07 11:36:07;;;;;;;3.47;2.97;;;;;;;24.42;37.59;97444.84;4913628;29;20680;-77
2022/09/07 11:38:47;;;;;;;4.60;2.37;;;;;;;24.56;38.22;97444.34;4930792;29;20211;-76
2022/09/07 11:41:25;;;;;;;4.63;2.80;;;;;;;24.69;37.33;97442.22;4931029;29;20193;-76
2022/09/07 11:44:02;;;;;;;4.37;2.60;;;;;;;24.99;36.63;97441.91;4930522;29;20310;-79
2022/09/07 11:46:40;;;;;;;4.50;2.30;;;;;;;25.28;35.98;97437.25;4930793;29;20238;-77
2022/09/07 11:49:24;;;;;;;3.13;2.23;;;;;;;25.10;36.66;97443.53;4930697;29;20287;-80
2022/09/07 11:51:56;;;;;;;2.73;2.37;;;;;;;25.02;36.92;97426.53;4897474;29;20202;-78
2022/09/07 11:54:33;;;;;;;3.17;2.87;;;;;;;25.22;36.64;97429.06;4930554;29;20193;-76
2022/09/07 11:57:11;;;;;;;2.23;1.90;;;;;;;24.91;37.38;97436.53;4930217;29;20224;-78
2022/09/07 11:59:47;;;;;;;4.17;2.67;;;;;;;25.08;37.19;97429.59;4930196;29;20288;-76
2022/09/07 12:02:29;;;;;;;2.17;1.97;;;;;;;24.76;37.56;97422.09;4930296;29;20192;-76
2022/09/07 12:05:49;;;;;;;3.47;2.60;;;;;;;25.10;36.88;97422.31;4930414;29;20189;-76
2022/09/07 12:08:35;;;;;;;3.07;2.30;;;;;;;25.39;36.20;97423.75;4930223;29;20231;-77